createdAt,value
2017-10-29T00:01:17.394Z,13.20
2017-10-29T00:03:45.661Z,13.30
2017-10-29T00:06:13.198Z,13.30
2017-10-29T00:08:40.698Z,13.40
2017-10-29T00:11:08.263Z,13.40
2017-10-29T00:13:35.765Z,13.50
2017-10-29T00:16:04.062Z,13.60
2017-10-29T00:18:32.330Z,13.60
2017-10-29T00:20:59.867Z,13.50
2017-10-29T00:23:27.370Z,13.60
2017-10-29T00:25:54.872Z,13.60
2017-10-29T00:28:22.405Z,13.70
2017-10-29T00:30:49.898Z,13.80
2017-10-29T00:33:17.431Z,13.80
2017-10-29T00:35:44.943Z,13.70
2017-10-29T00:38:13.238Z,14.00
2017-10-29T00:40:40.730Z,14.00
2017-10-29T00:43:08.278Z,14.00
2017-10-29T00:45:36.538Z,14.00
2017-10-29T00:48:04.038Z,14.00
2017-10-29T00:50:32.346Z,14.10
2017-10-29T00:52:59.841Z,14.10
2017-10-29T00:55:27.366Z,14.00
2017-10-29T00:57:55.622Z,14.10
2017-10-29T01:00:23.154Z,14.10
2017-10-29T01:02:50.654Z,14.10
2017-10-29T01:05:18.181Z,14.20
2017-10-29T01:07:46.444Z,14.20
2017-10-29T01:10:13.991Z,14.20
2017-10-29T01:12:41.486Z,14.20
2017-10-29T01:15:08.978Z,14.40
2017-10-29T01:17:36.502Z,14.40
2017-10-29T01:20:04.004Z,14.30
2017-10-29T01:22:31.534Z,14.20
2017-10-29T01:24:59.031Z,14.10
2017-10-29T01:27:26.559Z,14.00
2017-10-29T01:29:54.053Z,13.90
2017-10-29T01:32:21.610Z,13.90
2017-10-29T01:34:49.113Z,14.10
2017-10-29T01:37:16.613Z,14.20
2017-10-29T01:39:44.907Z,14.30
2017-10-29T01:42:13.170Z,14.30
2017-10-29T01:44:40.702Z,14.30
2017-10-29T01:47:08.194Z,14.30
2017-10-29T01:49:35.722Z,14.30
2017-10-29T01:52:03.990Z,14.10
2017-10-29T01:54:31.522Z,14.10
2017-10-29T01:56:59.010Z,14.10
2017-10-29T01:59:26.637Z,14.10
2017-10-29T02:01:54.142Z,14.10
2017-10-29T02:04:21.690Z,14.10
2017-10-29T02:06:49.189Z,14.20
2017-10-29T02:09:16.690Z,14.20
2017-10-29T02:11:44.210Z,14.20
2017-10-29T02:14:11.704Z,14.20
2017-10-29T02:16:39.238Z,14.20
2017-10-29T02:19:06.738Z,14.10
2017-10-29T02:21:34.272Z,14.10
2017-10-29T02:24:02.533Z,14.00
2017-10-29T02:26:30.086Z,14.00
2017-10-29T02:28:57.612Z,13.90
2017-10-29T02:31:25.110Z,13.80
2017-10-29T02:33:52.638Z,13.80
2017-10-29T02:36:20.910Z,13.70
2017-10-29T02:38:48.445Z,13.70
2017-10-29T02:41:15.959Z,13.60
2017-10-29T02:43:43.494Z,13.60
2017-10-29T02:46:10.997Z,13.60
2017-10-29T02:48:38.534Z,13.50
2017-10-29T02:51:06.037Z,13.50
2017-10-29T02:53:33.591Z,13.50
2017-10-29T02:56:01.090Z,13.50
2017-10-29T02:58:28.587Z,13.50
2017-10-29T03:00:56.118Z,13.50
2017-10-29T03:03:23.615Z,13.50
2017-10-29T03:05:51.910Z,13.60
2017-10-29T03:08:20.171Z,13.60
2017-10-29T03:10:47.703Z,13.60
2017-10-29T03:13:15.222Z,13.60
2017-10-29T03:15:42.948Z,13.50
2017-10-29T03:18:10.433Z,13.50
2017-10-29T03:20:37.956Z,13.40
2017-10-29T03:23:06.218Z,13.30
2017-10-29T03:25:33.785Z,13.30
2017-10-29T03:28:01.273Z,13.40
2017-10-29T03:30:28.787Z,13.40
2017-10-29T03:32:56.314Z,13.40
2017-10-29T03:35:23.802Z,13.40
2017-10-29T03:37:51.346Z,13.40
2017-10-29T03:40:18.853Z,13.40
2017-10-29T03:42:47.142Z,13.30
2017-10-29T03:45:14.634Z,13.40
2017-10-29T03:47:42.164Z,13.40
2017-10-29T03:50:09.672Z,13.30
2017-10-29T03:52:37.202Z,13.30
2017-10-29T03:55:04.696Z,13.10
2017-10-29T03:57:33.015Z,13.00
2017-10-29T04:00:00.514Z,13.00
2017-10-29T04:02:28.006Z,13.00
2017-10-29T04:04:55.542Z,12.90
2017-10-29T04:07:23.031Z,12.90
2017-10-29T04:09:50.559Z,12.90
2017-10-29T04:12:18.050Z,13.00
2017-10-29T04:14:45.581Z,13.00
2017-10-29T04:17:13.845Z,13.00
2017-10-29T04:19:41.371Z,13.00
2017-10-29T04:22:08.857Z,12.90
2017-10-29T04:24:36.390Z,12.90
2017-10-29T04:27:04.652Z,12.80
2017-10-29T04:29:32.151Z,12.80
2017-10-29T04:32:00.474Z,12.70
2017-10-29T04:34:27.969Z,12.70
2017-10-29T04:36:55.502Z,12.60
2017-10-29T04:39:22.995Z,12.50
2017-10-29T04:41:50.518Z,12.50
2017-10-29T04:44:18.777Z,12.40
2017-10-29T04:46:46.311Z,12.40
2017-10-29T04:49:13.810Z,12.40
2017-10-29T04:51:41.338Z,12.30
2017-10-29T04:54:08.833Z,12.40
2017-10-29T04:56:36.354Z,12.50
2017-10-29T04:59:03.846Z,12.60
2017-10-29T05:01:32.101Z,12.60
2017-10-29T05:03:59.641Z,12.60
2017-10-29T05:06:27.145Z,12.60
2017-10-29T05:08:54.673Z,12.50
2017-10-29T05:11:22.174Z,12.60
2017-10-29T05:13:49.718Z,12.60
2017-10-29T05:16:17.213Z,12.50
2017-10-29T05:18:44.706Z,12.40
2017-10-29T05:21:12.232Z,12.30
2017-10-29T05:23:39.738Z,12.20
2017-10-29T05:26:07.260Z,12.20
2017-10-29T05:28:34.754Z,12.20
2017-10-29T05:31:02.274Z,12.10
2017-10-29T05:33:29.814Z,12.10
2017-10-29T05:35:57.346Z,12.10
2017-10-29T05:38:24.846Z,12.10
2017-10-29T05:40:52.371Z,12.00
2017-10-29T05:43:20.652Z,11.80
2017-10-29T05:45:48.977Z,11.80
2017-10-29T05:48:16.470Z,11.80
2017-10-29T05:50:43.960Z,11.70
2017-10-29T05:53:11.484Z,11.60
2017-10-29T05:55:38.978Z,11.60
2017-10-29T05:58:06.509Z,11.50
2017-10-29T06:00:34.766Z,11.50
2017-10-29T06:03:02.289Z,11.40
2017-10-29T06:05:29.788Z,11.40
2017-10-29T06:07:57.338Z,11.40
2017-10-29T06:10:24.833Z,11.30
2017-10-29T06:12:52.330Z,11.30
2017-10-29T06:15:19.865Z,11.40
2017-10-29T06:17:47.358Z,11.30
2017-10-29T06:20:14.892Z,11.30
2017-10-29T06:22:42.392Z,11.30
2017-10-29T06:25:09.928Z,11.40
2017-10-29T06:27:37.434Z,11.40
2017-10-29T06:30:04.958Z,11.30
2017-10-29T06:32:33.215Z,11.40
2017-10-29T06:35:00.757Z,11.40
2017-10-29T06:37:28.253Z,11.40
2017-10-29T06:39:55.785Z,11.40
2017-10-29T06:42:23.297Z,11.40
2017-10-29T06:44:50.846Z,11.40
2017-10-29T06:47:18.338Z,11.40
2017-10-29T06:49:45.840Z,11.40
2017-10-29T06:52:14.148Z,11.40
2017-10-29T06:54:41.657Z,11.50
2017-10-29T06:57:09.184Z,11.40
2017-10-29T06:59:37.446Z,11.30
2017-10-29T07:02:04.974Z,11.30
2017-10-29T07:04:32.481Z,11.40
2017-10-29T07:07:00.017Z,11.40
2017-10-29T07:09:27.513Z,11.50
2017-10-29T07:11:55.045Z,11.50
2017-10-29T07:14:22.578Z,11.60
2017-10-29T07:16:50.118Z,11.60
2017-10-29T07:19:17.649Z,11.60
2017-10-29T07:21:45.923Z,11.60
2017-10-29T07:24:14.182Z,11.60
2017-10-29T07:26:41.684Z,11.50
2017-10-29T07:29:10.012Z,11.50
2017-10-29T07:31:37.510Z,11.50
2017-10-29T07:34:05.038Z,11.60
2017-10-29T07:36:32.538Z,11.60
2017-10-29T07:39:00.090Z,11.60
2017-10-29T07:41:27.595Z,11.60
2017-10-29T07:43:55.091Z,11.60
2017-10-29T07:46:22.622Z,11.70
2017-10-29T07:48:50.119Z,11.80
2017-10-29T07:51:17.651Z,11.90
2017-10-29T07:53:45.158Z,12.40
2017-10-29T07:56:12.691Z,13.00
2017-10-29T07:58:40.190Z,13.70
2017-10-29T08:01:07.723Z,13.70
2017-10-29T08:03:35.217Z,13.50
2017-10-29T08:06:02.750Z,13.20
2017-10-29T08:08:31.425Z,13.00
2017-10-29T08:10:58.950Z,13.00
2017-10-29T08:13:26.445Z,12.90
2017-10-29T08:15:53.983Z,12.90
2017-10-29T08:18:21.482Z,13.10
2017-10-29T08:20:48.977Z,13.90
2017-10-29T08:23:16.510Z,14.30
2017-10-29T08:25:44.462Z,14.80
2017-10-29T08:28:12.761Z,15.20
2017-10-29T08:30:40.261Z,15.20
2017-10-29T08:33:07.791Z,15.70
2017-10-29T08:35:36.053Z,15.40
2017-10-29T08:38:03.602Z,15.40
2017-10-29T08:40:31.098Z,16.20
2017-10-29T08:42:58.634Z,16.70
2017-10-29T08:45:26.131Z,17.60
2017-10-29T08:47:53.658Z,17.10
2017-10-29T08:50:21.149Z,17.00
2017-10-29T08:52:48.709Z,16.90
2017-10-29T08:55:16.206Z,16.30
2017-10-29T08:57:43.697Z,16.40
2017-10-29T09:00:11.221Z,16.30
2017-10-29T09:02:38.747Z,15.70
2017-10-29T09:05:06.296Z,16.40
2017-10-29T09:07:33.786Z,16.60
2017-10-29T09:10:01.314Z,16.20
2017-10-29T09:12:28.810Z,16.10
2017-10-29T09:14:56.339Z,15.90
2017-10-29T09:17:23.834Z,15.40
2017-10-29T09:19:51.373Z,15.60
2017-10-29T09:22:18.865Z,15.20
2017-10-29T09:24:46.361Z,15.00
2017-10-29T09:27:13.890Z,14.40
2017-10-29T09:29:42.141Z,13.80
2017-10-29T09:32:09.670Z,13.80
2017-10-29T09:34:37.169Z,13.70
2017-10-29T09:37:04.702Z,13.30
2017-10-29T09:39:32.233Z,13.20
2017-10-29T09:42:00.563Z,13.50
2017-10-29T09:44:28.055Z,13.90
2017-10-29T09:46:55.582Z,13.60
2017-10-29T09:49:23.073Z,13.90
2017-10-29T09:51:50.604Z,13.90
2017-10-29T09:54:18.093Z,13.30
2017-10-29T09:56:45.590Z,13.20
2017-10-29T09:59:13.118Z,13.30
2017-10-29T10:01:40.646Z,13.70
2017-10-29T10:04:08.173Z,14.00
2017-10-29T10:06:35.667Z,14.30
2017-10-29T10:09:03.974Z,15.50
2017-10-29T10:11:31.479Z,15.40
2017-10-29T10:13:59.026Z,15.00
2017-10-29T10:16:26.523Z,14.70
2017-10-29T10:18:54.074Z,14.60
2017-10-29T10:21:21.570Z,14.20
2017-10-29T10:23:49.067Z,13.90
2017-10-29T10:26:16.610Z,14.50
2017-10-29T10:28:44.133Z,14.90
2017-10-29T10:31:12.426Z,15.20
2017-10-29T10:33:40.686Z,15.80
2017-10-29T10:36:08.234Z,15.80
2017-10-29T10:38:35.740Z,15.00
2017-10-29T10:41:04.053Z,14.70
2017-10-29T10:43:31.551Z,14.70
2017-10-29T10:45:59.094Z,14.70
2017-10-29T10:48:26.605Z,15.10
2017-10-29T10:50:54.110Z,14.50
2017-10-29T10:53:22.417Z,13.70
2017-10-29T10:55:50.677Z,13.50
2017-10-29T10:58:18.209Z,13.50
2017-10-29T11:00:45.718Z,13.30
2017-10-29T11:03:13.241Z,13.40
2017-10-29T11:05:40.734Z,13.10
2017-10-29T11:08:08.258Z,12.90
2017-10-29T11:10:36.525Z,13.00
2017-10-29T11:13:04.054Z,13.00
2017-10-29T11:15:31.558Z,12.80
2017-10-29T11:17:59.090Z,12.70
2017-10-29T11:20:26.697Z,12.40
2017-10-29T11:22:54.409Z,12.20
2017-10-29T11:25:22.674Z,12.00
2017-10-29T11:27:50.222Z,11.90
2017-10-29T11:30:17.712Z,11.70
2017-10-29T11:32:45.211Z,11.50
2017-10-29T11:35:13.514Z,11.40
2017-10-29T11:37:41.023Z,11.40
2017-10-29T11:40:08.554Z,11.20
2017-10-29T11:42:36.814Z,11.00
2017-10-29T11:45:04.338Z,11.00
2017-10-29T11:47:31.826Z,11.20
2017-10-29T11:49:59.374Z,11.40
2017-10-29T11:52:26.878Z,11.70
2017-10-29T11:54:54.380Z,12.00
2017-10-29T11:57:21.911Z,12.20
2017-10-29T11:59:49.412Z,12.20
2017-10-29T12:02:16.942Z,12.20
2017-10-29T12:04:44.458Z,12.00
2017-10-29T12:07:11.982Z,11.80
2017-10-29T12:09:39.545Z,11.70
2017-10-29T12:12:07.097Z,11.80
2017-10-29T12:14:34.586Z,11.70
2017-10-29T12:17:02.086Z,11.70
2017-10-29T12:19:29.617Z,11.70
2017-10-29T12:21:57.873Z,11.70
2017-10-29T12:24:25.426Z,11.70
2017-10-29T12:26:52.909Z,11.70
2017-10-29T12:29:20.437Z,11.80
2017-10-29T12:31:47.934Z,11.80
2017-10-29T12:34:15.479Z,11.60
2017-10-29T12:36:42.978Z,11.50
2017-10-29T12:39:10.465Z,11.50
2017-10-29T12:41:37.991Z,11.60
2017-10-29T12:44:05.490Z,11.70
2017-10-29T12:46:33.018Z,11.90
2017-10-29T12:49:01.278Z,12.20
2017-10-29T12:51:28.801Z,12.20
2017-10-29T12:53:56.294Z,12.20
2017-10-29T12:56:23.846Z,12.00
2017-10-29T12:58:51.337Z,12.00
2017-10-29T13:01:18.831Z,12.00
2017-10-29T13:03:46.363Z,11.80
2017-10-29T13:06:13.858Z,11.80
2017-10-29T13:08:41.376Z,11.60
2017-10-29T13:11:09.635Z,11.30
2017-10-29T13:13:37.173Z,11.30
2017-10-29T13:16:04.673Z,11.20
2017-10-29T13:18:32.199Z,11.10
2017-10-29T13:20:59.703Z,11.10
2017-10-29T13:23:27.242Z,11.20
2017-10-29T13:25:54.738Z,11.30
2017-10-29T13:28:22.333Z,11.30
2017-10-29T13:30:49.830Z,11.30
2017-10-29T13:33:18.095Z,11.00
2017-10-29T13:35:45.615Z,11.00
2017-10-29T13:38:13.114Z,10.90
2017-10-29T13:40:40.679Z,10.80
2017-10-29T13:43:08.154Z,10.90
2017-10-29T13:45:35.679Z,10.80
2017-10-29T13:48:03.954Z,10.80
2017-10-29T13:50:31.476Z,10.80
2017-10-29T13:52:58.978Z,10.80
2017-10-29T13:55:26.506Z,10.70
2017-10-29T13:57:54.002Z,10.80
2017-10-29T14:00:21.495Z,10.80
2017-10-29T14:02:49.023Z,10.80
2017-10-29T14:05:16.522Z,10.80
2017-10-29T14:07:44.054Z,10.90
2017-10-29T14:10:11.550Z,11.00
2017-10-29T14:12:39.086Z,10.90
2017-10-29T14:15:06.588Z,11.10
2017-10-29T14:17:34.118Z,11.20
2017-10-29T14:20:01.613Z,11.30
2017-10-29T14:22:29.170Z,11.50
2017-10-29T14:24:57.426Z,11.30
2017-10-29T14:27:24.926Z,11.30
2017-10-29T14:29:53.214Z,11.00
2017-10-29T14:32:20.716Z,11.00
2017-10-29T14:34:48.251Z,11.00
2017-10-29T14:37:15.745Z,11.00
2017-10-29T14:39:43.274Z,11.00
2017-10-29T14:42:10.778Z,11.10
2017-10-29T14:44:39.070Z,11.50
2017-10-29T14:47:07.330Z,11.50
2017-10-29T14:49:34.859Z,11.50
2017-10-29T14:52:02.362Z,11.50
2017-10-29T14:54:29.853Z,11.40
2017-10-29T14:56:57.374Z,11.30
2017-10-29T14:59:24.865Z,11.30
2017-10-29T15:01:52.398Z,11.20
2017-10-29T15:04:19.941Z,11.20
2017-10-29T15:06:47.482Z,11.10
2017-10-29T15:09:14.969Z,11.10
2017-10-29T15:11:42.461Z,11.10
2017-10-29T15:14:10.001Z,10.90
2017-10-29T15:16:37.501Z,10.80
2017-10-29T15:19:05.030Z,10.70
2017-10-29T15:21:32.522Z,10.60
2017-10-29T15:24:00.050Z,10.60
2017-10-29T15:26:27.541Z,10.50
2017-10-29T15:28:55.082Z,10.50
2017-10-29T15:31:23.338Z,10.50
2017-10-29T15:33:50.829Z,10.50
2017-10-29T15:36:19.125Z,10.40
2017-10-29T15:38:46.618Z,10.40
2017-10-29T15:41:14.149Z,10.30
2017-10-29T15:43:41.641Z,10.10
2017-10-29T15:46:09.938Z,9.90
2017-10-29T15:48:37.425Z,9.90
2017-10-29T15:51:04.969Z,9.80
2017-10-29T15:53:33.230Z,9.70
2017-10-29T15:56:00.726Z,9.70
2017-10-29T15:58:29.030Z,9.60
2017-10-29T16:00:56.522Z,9.50
2017-10-29T16:03:24.058Z,9.50
2017-10-29T16:05:52.324Z,9.50
2017-10-29T16:08:19.851Z,9.50
2017-10-29T16:10:47.338Z,9.50
2017-10-29T16:13:14.866Z,9.50
2017-10-29T16:15:43.457Z,9.50
2017-10-29T16:18:11.745Z,9.40
2017-10-29T16:20:40.010Z,9.40
2017-10-29T16:23:07.579Z,9.30
2017-10-29T16:25:35.073Z,9.30
2017-10-29T16:28:02.562Z,9.30
2017-10-29T16:30:30.081Z,9.20
2017-10-29T16:32:57.578Z,9.10
2017-10-29T16:35:25.102Z,9.10
2017-10-29T16:37:52.587Z,9.00
2017-10-29T16:40:20.119Z,9.10
2017-10-29T16:42:47.610Z,9.20
2017-10-29T16:45:15.139Z,9.10
2017-10-29T16:47:43.427Z,9.10
2017-10-29T16:50:11.743Z,9.20
2017-10-29T16:52:39.247Z,9.10
2017-10-29T16:55:06.746Z,9.20
2017-10-29T16:57:34.272Z,9.20
2017-10-29T17:00:01.771Z,9.10
2017-10-29T17:02:29.298Z,9.20
2017-10-29T17:04:56.785Z,9.10
2017-10-29T17:07:24.309Z,8.90
2017-10-29T17:09:51.849Z,8.80
2017-10-29T17:12:19.359Z,8.70
2017-10-29T17:14:46.850Z,8.70
2017-10-29T17:17:14.394Z,8.80
2017-10-29T17:19:41.887Z,8.70
2017-10-29T17:22:10.147Z,8.90
2017-10-29T17:24:37.674Z,8.80
2017-10-29T17:27:05.170Z,8.90
2017-10-29T17:29:32.729Z,8.90
2017-10-29T17:32:00.249Z,8.90
2017-10-29T17:34:28.541Z,8.80
2017-10-29T17:36:56.038Z,8.80
2017-10-29T17:39:23.525Z,8.80
2017-10-29T17:41:51.047Z,8.70
2017-10-29T17:44:18.542Z,8.70
2017-10-29T17:46:46.834Z,8.70
2017-10-29T17:49:15.091Z,8.70
2017-10-29T17:51:42.620Z,8.70
2017-10-29T17:54:10.113Z,8.90
2017-10-29T17:56:37.636Z,8.90
2017-10-29T17:59:05.209Z,9.00
2017-10-29T18:01:32.757Z,9.00
2017-10-29T18:04:00.246Z,9.10
2017-10-29T18:06:28.497Z,9.10
2017-10-29T18:08:56.049Z,9.10
2017-10-29T18:11:23.534Z,9.10
2017-10-29T18:13:51.053Z,9.10
2017-10-29T18:16:19.302Z,9.10
2017-10-29T18:18:46.835Z,9.10
2017-10-29T18:21:14.330Z,9.10
2017-10-29T18:23:41.870Z,9.00
2017-10-29T18:26:09.363Z,8.80
2017-10-29T18:28:36.856Z,8.70
2017-10-29T18:31:04.380Z,8.50
2017-10-29T18:33:31.874Z,8.50
2017-10-29T18:36:00.174Z,8.40
2017-10-29T18:38:27.676Z,8.40
2017-10-29T18:40:55.197Z,8.40
2017-10-29T18:43:22.690Z,8.20
2017-10-29T18:45:50.246Z,8.10
2017-10-29T18:48:18.594Z,8.10
2017-10-29T18:50:46.855Z,7.90
2017-10-29T18:53:14.374Z,7.90
2017-10-29T18:55:41.863Z,7.90
2017-10-29T18:58:09.391Z,7.90
2017-10-29T19:00:36.896Z,7.80
2017-10-29T19:03:04.418Z,7.70
2017-10-29T19:05:31.905Z,7.60
2017-10-29T19:07:59.430Z,7.40
2017-10-29T19:10:26.925Z,7.40
2017-10-29T19:12:54.542Z,7.40
2017-10-29T19:15:22.794Z,7.50
2017-10-29T19:17:51.271Z,7.50
2017-10-29T19:20:18.767Z,7.60
2017-10-29T19:22:46.265Z,7.70
2017-10-29T19:25:14.550Z,7.70
2017-10-29T19:27:42.802Z,7.60
2017-10-29T19:30:10.322Z,7.60
2017-10-29T19:32:37.815Z,7.50
2017-10-29T19:35:05.338Z,7.30
2017-10-29T19:37:32.834Z,7.30
2017-10-29T19:40:00.392Z,7.30
2017-10-29T19:42:28.673Z,7.20
2017-10-29T19:44:56.978Z,7.20
2017-10-29T19:47:25.242Z,7.10
2017-10-29T19:49:52.786Z,7.10
2017-10-29T19:52:20.278Z,7.20
2017-10-29T19:54:47.769Z,7.10
2017-10-29T19:57:16.070Z,7.00
2017-10-29T19:59:44.331Z,7.00
2017-10-29T20:02:11.858Z,7.00
2017-10-29T20:04:39.350Z,6.90
2017-10-29T20:07:06.886Z,6.90
2017-10-29T20:09:34.376Z,6.90
2017-10-29T20:12:01.914Z,6.90
2017-10-29T20:14:30.183Z,6.90
2017-10-29T20:16:57.755Z,6.90
2017-10-29T20:19:25.253Z,6.90
2017-10-29T20:21:52.762Z,6.90
2017-10-29T20:24:20.298Z,6.90
2017-10-29T20:26:48.558Z,6.80
2017-10-29T20:29:16.096Z,6.80
2017-10-29T20:31:43.594Z,6.70
2017-10-29T20:34:11.128Z,6.80
2017-10-29T20:36:38.623Z,6.80
2017-10-29T20:39:06.151Z,6.80
2017-10-29T20:41:33.655Z,6.80
2017-10-29T20:44:01.200Z,6.80
2017-10-29T20:46:28.682Z,6.70
2017-10-29T20:48:56.174Z,6.80
2017-10-29T20:51:23.698Z,6.80
2017-10-29T20:53:51.954Z,6.70
2017-10-29T20:56:19.482Z,6.70
2017-10-29T20:58:46.980Z,6.70
2017-10-29T21:01:14.534Z,6.60
2017-10-29T21:03:42.026Z,6.60
2017-10-29T21:06:09.576Z,6.60
2017-10-29T21:08:37.070Z,6.70
2017-10-29T21:11:05.363Z,6.80
2017-10-29T21:13:33.754Z,6.80
2017-10-29T21:16:01.274Z,6.80
2017-10-29T21:18:29.529Z,6.90
2017-10-29T21:20:57.077Z,6.90
2017-10-29T21:23:24.570Z,7.00
2017-10-29T21:25:52.058Z,7.00
2017-10-29T21:28:19.586Z,7.10
2017-10-29T21:30:47.075Z,7.10
2017-10-29T21:33:14.605Z,7.10
2017-10-29T21:35:42.101Z,7.10
2017-10-29T21:38:09.617Z,7.00
2017-10-29T21:40:37.102Z,7.10
2017-10-29T21:43:04.628Z,7.00
2017-10-29T21:45:32.134Z,6.90
2017-10-29T21:48:00.428Z,6.70
2017-10-29T21:50:28.686Z,6.70
2017-10-29T21:52:56.222Z,6.70
2017-10-29T21:55:23.716Z,6.60
2017-10-29T21:57:51.210Z,6.70
2017-10-29T22:00:18.730Z,6.70
2017-10-29T22:02:46.226Z,6.80
2017-10-29T22:05:13.766Z,6.80
2017-10-29T22:07:42.021Z,6.60
2017-10-29T22:10:09.551Z,6.60
2017-10-29T22:12:37.043Z,6.50
2017-10-29T22:15:04.577Z,6.40
2017-10-29T22:17:32.068Z,6.30
2017-10-29T22:19:59.616Z,6.20
2017-10-29T22:22:27.121Z,6.10
2017-10-29T22:24:54.642Z,6.10
2017-10-29T22:27:22.895Z,6.00
2017-10-29T22:29:50.425Z,6.00
2017-10-29T22:32:17.945Z,6.00
2017-10-29T22:34:45.429Z,5.90
2017-10-29T22:37:12.957Z,5.90
2017-10-29T22:39:40.451Z,5.80
2017-10-29T22:42:07.979Z,5.70
2017-10-29T22:44:35.465Z,5.70
2017-10-29T22:47:02.990Z,5.70
2017-10-29T22:49:30.486Z,5.70
2017-10-29T22:51:58.005Z,5.60
2017-10-29T22:54:25.501Z,5.80
2017-10-29T22:56:53.031Z,5.80
2017-10-29T22:59:20.518Z,5.80
2017-10-29T23:01:48.045Z,5.70
2017-10-29T23:04:15.530Z,5.60
2017-10-29T23:06:47.870Z,5.50
2017-10-29T23:09:22.293Z,5.40
2017-10-29T23:11:49.820Z,5.30
2017-10-29T23:14:17.318Z,5.30
2017-10-29T23:16:44.862Z,5.30
2017-10-29T23:19:12.346Z,5.30
2017-10-29T23:21:39.836Z,5.20
2017-10-29T23:24:07.357Z,5.20
2017-10-29T23:26:35.606Z,5.30
2017-10-29T23:29:03.139Z,5.30
2017-10-29T23:31:30.636Z,5.30
2017-10-29T23:33:58.162Z,5.30
2017-10-29T23:36:26.422Z,5.40
2017-10-29T23:38:53.942Z,5.40
2017-10-29T23:41:21.430Z,5.30
2017-10-29T23:43:49.157Z,5.30
2017-10-29T23:46:17.418Z,5.20
2017-10-29T23:48:44.908Z,5.20
2017-10-29T23:51:12.431Z,5.10
2017-10-29T23:53:39.934Z,5.00
2017-10-29T23:56:07.455Z,5.00
2017-10-29T23:58:34.954Z,5.00
